createdAt,value
2023-12-20T00:00:39.533Z,97165.63
2023-12-20T00:03:07.224Z,97163.78
2023-12-20T00:05:35.937Z,97157.75
2023-12-20T00:08:03.606Z,97146.16
2023-12-20T00:10:31.221Z,97121.19
2023-12-20T00:13:00.156Z,97110.34
2023-12-20T00:15:27.799Z,97101.09
2023-12-20T00:17:55.408Z,97112.44
2023-12-20T00:20:23.092Z,97126.66
2023-12-20T00:22:50.673Z,97131.13
2023-12-20T00:25:18.914Z,97131.94
2023-12-20T00:27:46.903Z,97120.41
2023-12-20T00:30:16.138Z,97116.19
2023-12-20T00:32:47.341Z,97112.00
2023-12-20T00:35:15.153Z,97099.13
2023-12-20T00:37:42.874Z,97095.72
2023-12-20T00:40:11.532Z,97098.88
2023-12-20T00:42:39.337Z,97093.59
2023-12-20T00:45:07.926Z,97089.94
2023-12-20T00:47:36.843Z,97089.94
2023-12-20T00:50:04.856Z,97085.25
2023-12-20T00:52:32.500Z,97079.22
2023-12-20T00:55:00.190Z,97078.41
2023-12-20T00:57:27.915Z,97078.94
2023-12-20T00:59:55.512Z,97084.44
2023-12-20T01:02:23.091Z,97081.03
2023-12-20T01:04:52.060Z,97077.88
2023-12-20T01:07:19.843Z,97089.19
2023-12-20T01:09:47.634Z,97101.78
2023-12-20T01:12:15.222Z,97101.00
2023-12-20T01:14:43.384Z,97099.41
2023-12-20T01:17:10.983Z,97106.56
2023-12-20T01:19:38.660Z,97103.09
2023-12-20T01:22:07.768Z,97107.56
2023-12-20T01:24:35.321Z,97105.19
2023-12-20T01:27:03.323Z,97097.84
2023-12-20T01:29:30.919Z,97100.47
2023-12-20T01:31:58.492Z,97094.69
2023-12-20T01:34:26.227Z,97102.31
2023-12-20T01:36:53.804Z,97101.28
2023-12-20T01:39:28.068Z,97108.84
2023-12-20T01:41:57.604Z,97113.34
2023-12-20T01:44:25.677Z,97111.53
2023-12-20T01:46:53.517Z,97097.56
2023-12-20T01:49:21.787Z,97096.25
2023-12-20T01:51:50.142Z,97099.41
2023-12-20T01:54:18.427Z,97105.19
2023-12-20T01:56:47.708Z,97101.78
2023-12-20T01:59:15.529Z,97093.38
2023-12-20T02:01:43.293Z,97100.47
2023-12-20T02:04:11.130Z,97102.03
2023-12-20T02:06:42.146Z,97089.97
2023-12-20T02:09:10.254Z,97093.63
2023-12-20T02:11:38.206Z,97094.16
2023-12-20T02:14:07.131Z,97093.59
2023-12-20T02:16:34.706Z,97092.00
2023-12-20T02:19:02.339Z,97093.09
2023-12-20T02:21:35.985Z,97078.88
2023-12-20T02:24:03.528Z,97080.97
2023-12-20T02:26:31.433Z,97086.44
2023-12-20T02:28:59.092Z,97078.34
2023-12-20T02:31:26.693Z,97085.22
2023-12-20T02:33:54.335Z,97091.81
2023-12-20T02:36:21.912Z,97092.59
2023-12-20T02:38:51.824Z,97093.63
2023-12-20T02:41:19.426Z,97092.56
2023-12-20T02:43:47.502Z,97097.81
2023-12-20T02:46:18.993Z,97097.28
2023-12-20T02:48:48.245Z,97105.16
2023-12-20T02:51:15.918Z,97106.72
2023-12-20T02:53:43.454Z,97106.22
2023-12-20T02:56:12.528Z,97101.22
2023-12-20T02:58:40.092Z,97101.47
2023-12-20T03:01:07.818Z,97098.06
2023-12-20T03:03:35.706Z,97099.34
2023-12-20T03:06:03.334Z,97091.16
2023-12-20T03:08:32.117Z,97093.81
2023-12-20T03:11:01.190Z,97090.94
2023-12-20T03:13:30.142Z,97088.56
2023-12-20T03:15:57.748Z,97091.69
2023-12-20T03:18:25.283Z,97084.56
2023-12-20T03:20:53.712Z,97093.16
2023-12-20T03:23:21.294Z,97093.47
2023-12-20T03:25:48.890Z,97095.84
2023-12-20T03:28:16.827Z,97092.41
2023-12-20T03:30:45.989Z,97098.78
2023-12-20T03:33:13.558Z,97104.78
2023-12-20T03:35:41.093Z,97099.53
2023-12-20T03:38:08.716Z,97109.03
2023-12-20T03:40:36.249Z,97102.97
2023-12-20T03:43:03.838Z,97111.88
2023-12-20T03:45:31.448Z,97102.97
2023-12-20T03:48:00.483Z,97107.97
2023-12-20T03:50:28.906Z,97114.50
2023-12-20T03:52:56.510Z,97112.59
2023-12-20T03:55:24.206Z,97109.91
2023-12-20T03:57:51.886Z,97115.81
2023-12-20T04:00:19.891Z,97109.44
2023-12-20T04:02:47.592Z,97103.69
2023-12-20T04:05:16.678Z,97101.66
2023-12-20T04:07:45.180Z,97108.22
2023-12-20T04:10:13.092Z,97104.28
2023-12-20T04:12:41.378Z,97091.53
2023-12-20T04:15:11.441Z,97114.53
2023-12-20T04:17:39.148Z,97119.63
2023-12-20T04:20:08.132Z,97126.13
2023-12-20T04:22:37.243Z,97125.44
2023-12-20T04:25:05.100Z,97141.81
2023-12-20T04:27:32.695Z,97137.34
2023-12-20T04:30:00.279Z,97135.44
2023-12-20T04:32:27.849Z,97147.63
2023-12-20T04:34:55.493Z,97147.09
2023-12-20T04:37:23.191Z,97153.63
2023-12-20T04:39:52.206Z,97165.81
2023-12-20T04:42:19.764Z,97158.47
2023-12-20T04:44:47.302Z,97156.25
2023-12-20T04:47:14.838Z,97149.72
2023-12-20T04:49:42.414Z,97157.03
2023-12-20T04:52:10.080Z,97151.66
2023-12-20T04:54:37.901Z,97152.09
2023-12-20T04:57:06.873Z,97152.44
2023-12-20T04:59:34.464Z,97152.81
2023-12-20T05:02:02.058Z,97156.72
2023-12-20T05:04:29.731Z,97159.72
2023-12-20T05:06:57.382Z,97166.97
2023-12-20T05:09:24.957Z,97164.69
2023-12-20T05:11:52.502Z,97157.63
2023-12-20T05:14:21.394Z,97162.72
2023-12-20T05:16:48.927Z,97166.88
2023-12-20T05:19:16.482Z,97160.88
2023-12-20T05:21:44.051Z,97156.44
2023-12-20T05:24:11.625Z,97158.03
2023-12-20T05:26:39.155Z,97159.63
2023-12-20T05:29:06.688Z,97166.13
2023-12-20T05:31:35.628Z,97170.84
2023-12-20T05:34:03.417Z,97165.56
2023-12-20T05:36:31.049Z,97174.22
2023-12-20T05:38:58.639Z,97197.09
2023-12-20T05:41:26.200Z,97202.06
2023-12-20T05:43:53.787Z,97188.91
2023-12-20T05:46:22.289Z,97189.97
2023-12-20T05:48:52.644Z,97189.97
2023-12-20T05:51:20.525Z,97188.13
2023-12-20T05:53:48.120Z,97182.06
2023-12-20T05:56:15.659Z,97179.97
2023-12-20T05:58:43.327Z,97175.47
2023-12-20T06:01:11.231Z,97173.59
2023-12-20T06:03:38.908Z,97184.13
2023-12-20T06:06:15.845Z,97191.50
2023-12-20T06:08:45.443Z,97191.75
2023-12-20T06:11:14.552Z,97200.72
2023-12-20T06:13:42.135Z,97196.47
2023-12-20T06:16:09.843Z,97193.06
2023-12-20T06:18:38.720Z,97202.03
2023-12-20T06:21:09.029Z,97205.16
2023-12-20T06:23:36.667Z,97198.03
2023-12-20T06:26:04.391Z,97192.78
2023-12-20T06:28:32.081Z,97201.97
2023-12-20T06:31:00.144Z,97211.47
2023-12-20T06:33:27.797Z,97215.66
2023-12-20T06:35:55.346Z,97212.44
2023-12-20T06:38:24.260Z,97216.13
2023-12-20T06:40:51.797Z,97221.13
2023-12-20T06:43:32.006Z,97218.28
2023-12-20T06:46:06.867Z,97221.97
2023-12-20T06:48:34.484Z,97219.34
2023-12-20T06:51:03.087Z,97228.00
2023-12-20T06:53:31.971Z,97233.03
2023-12-20T06:55:59.548Z,97241.47
2023-12-20T06:58:27.259Z,97235.69
2023-12-20T07:00:55.068Z,97238.56
2023-12-20T07:03:22.826Z,97234.88
2023-12-20T07:05:50.425Z,97239.59
2023-12-20T07:08:18.007Z,97236.72
2023-12-20T07:10:46.918Z,97239.88
2023-12-20T07:13:15.150Z,97235.69
2023-12-20T07:15:44.840Z,97241.47
2023-12-20T07:18:12.647Z,97244.13
2023-12-20T07:20:40.354Z,97254.09
2023-12-20T07:23:07.943Z,97253.56
2023-12-20T07:25:35.748Z,97256.75
2023-12-20T07:28:05.059Z,97247.25
2023-12-20T07:30:32.678Z,97252.50
2023-12-20T07:33:00.374Z,97255.19
2023-12-20T07:35:28.119Z,97259.13
2023-12-20T07:37:55.736Z,97250.41
2023-12-20T07:40:24.930Z,97256.75
2023-12-20T07:42:52.625Z,97259.41
2023-12-20T07:45:21.516Z,97264.69
2023-12-20T07:47:50.133Z,97269.41
2023-12-20T07:50:18.161Z,97272.03
2023-12-20T07:52:45.841Z,97281.28
2023-12-20T07:55:13.531Z,97270.47
2023-12-20T07:57:41.198Z,97274.13
2023-12-20T08:00:09.775Z,97261.81
2023-12-20T08:02:39.217Z,97260.97
2023-12-20T08:05:07.067Z,97264.69
2023-12-20T08:07:34.798Z,97273.88
2023-12-20T08:10:02.505Z,97277.28
2023-12-20T08:12:30.114Z,97281.53
2023-12-20T08:14:58.167Z,97273.38
2023-12-20T08:17:25.844Z,97284.16
2023-12-20T08:19:54.804Z,97288.09
2023-12-20T08:22:22.536Z,97300.72
2023-12-20T08:24:50.151Z,97282.59
2023-12-20T08:27:17.680Z,97285.72
2023-12-20T08:29:45.996Z,97293.34
2023-12-20T08:32:13.718Z,97290.19
2023-12-20T08:34:41.343Z,97288.34
2023-12-20T08:37:10.318Z,97291.75
2023-12-20T08:39:37.894Z,97296.22
2023-12-20T08:42:06.050Z,97294.13
2023-12-20T08:44:33.604Z,97295.22
2023-12-20T08:47:01.155Z,97288.94
2023-12-20T08:49:29.225Z,97303.41
2023-12-20T08:51:56.942Z,97294.44
2023-12-20T08:54:25.846Z,97292.63
2023-12-20T08:56:53.366Z,97295.84
2023-12-20T08:59:20.966Z,97288.97
2023-12-20T09:01:49.564Z,97286.34
2023-12-20T09:04:17.345Z,97285.28
2023-12-20T09:06:45.201Z,97283.13
2023-12-20T09:09:14.778Z,97293.16
2023-12-20T09:11:44.166Z,97300.31
2023-12-20T09:14:11.721Z,97303.50
2023-12-20T09:16:39.324Z,97308.53
2023-12-20T09:19:07.319Z,97306.16
2023-12-20T09:21:34.920Z,97312.75
2023-12-20T09:24:02.524Z,97311.72
2023-12-20T09:26:30.069Z,97305.41
2023-12-20T09:28:58.977Z,97300.66
2023-12-20T09:31:26.739Z,97312.22
2023-12-20T09:33:54.525Z,97315.94
2023-12-20T09:36:22.277Z,97308.81
2023-12-20T09:38:49.845Z,97308.03
2023-12-20T09:41:17.617Z,97311.97
2023-12-20T09:43:45.260Z,97310.69
2023-12-20T09:46:18.786Z,97318.06
2023-12-20T09:48:46.990Z,97310.72
2023-12-20T09:51:15.009Z,97315.16
2023-12-20T09:53:44.484Z,97311.75
2023-12-20T09:56:12.456Z,97303.84
2023-12-20T09:58:40.365Z,97312.78
2023-12-20T10:01:08.980Z,97306.22
2023-12-20T10:03:41.478Z,97313.84
2023-12-20T10:06:09.484Z,97315.44
2023-12-20T10:08:37.128Z,97315.44
2023-12-20T10:11:05.320Z,97315.97
2023-12-20T10:13:33.021Z,97303.34
2023-12-20T10:16:01.879Z,97302.78
2023-12-20T10:18:38.107Z,97296.75
2023-12-20T10:21:10.980Z,97287.53
2023-12-20T10:23:40.173Z,97283.88
2023-12-20T10:26:07.821Z,97277.28
2023-12-20T10:28:36.541Z,97282.31
2023-12-20T10:31:04.324Z,97278.81
2023-12-20T10:33:34.304Z,97270.19
2023-12-20T10:36:01.977Z,97267.03
2023-12-20T10:38:31.511Z,97262.03
2023-12-20T10:41:00.654Z,97260.69
2023-12-20T10:43:31.622Z,97255.97
2023-12-20T10:45:59.635Z,97256.78
2023-12-20T10:48:30.734Z,97248.88
2023-12-20T10:50:59.774Z,97252.56
2023-12-20T10:53:27.805Z,97249.91
2023-12-20T10:56:02.259Z,97254.38
2023-12-20T10:58:31.925Z,97250.16
2023-12-20T11:01:03.938Z,97245.97
2023-12-20T11:03:34.905Z,97245.44
2023-12-20T11:06:07.563Z,97238.84
2023-12-20T11:08:40.998Z,97242.53
2023-12-20T11:11:18.398Z,97243.81
2023-12-20T11:13:56.116Z,97237.75
2023-12-20T11:16:24.631Z,97233.81
2023-12-20T11:18:53.986Z,97231.47
2023-12-20T11:21:22.610Z,97226.44
2023-12-20T11:23:50.457Z,97230.13
2023-12-20T11:26:28.556Z,97223.06
2023-12-20T11:28:55.980Z,97225.41
2023-12-20T11:31:23.646Z,97219.34
2023-12-20T11:33:52.727Z,97225.69
2023-12-20T11:36:22.214Z,97231.22
2023-12-20T11:38:58.832Z,97232.81
2023-12-20T11:41:28.387Z,97226.75
2023-12-20T11:43:56.368Z,97237.50
2023-12-20T11:46:24.619Z,97232.50
2023-12-20T11:48:52.956Z,97234.31
2023-12-20T11:51:20.768Z,97233.31
2023-12-20T11:53:53.831Z,97231.75
2023-12-20T11:56:21.623Z,97233.59
2023-12-20T11:58:51.607Z,97228.06
2023-12-20T12:01:22.122Z,97231.75
2023-12-20T12:03:49.934Z,97236.75
2023-12-20T12:06:17.799Z,97227.53
2023-12-20T12:08:45.381Z,97221.72
2023-12-20T12:11:13.093Z,97231.22
2023-12-20T12:13:40.862Z,97227.53
2023-12-20T12:16:10.613Z,97223.84
2023-12-20T12:18:38.250Z,97220.44
2023-12-20T12:21:10.622Z,97219.13
2023-12-20T12:23:43.287Z,97215.66
2023-12-20T12:26:11.135Z,97231.97
2023-12-20T12:28:42.375Z,97219.63
2023-12-20T12:31:15.656Z,97211.72
2023-12-20T12:33:44.808Z,97214.34
2023-12-20T12:36:13.412Z,97218.56
2023-12-20T12:38:40.965Z,97222.78
2023-12-20T12:41:08.559Z,97221.19
2023-12-20T12:43:37.119Z,97221.72
2023-12-20T12:46:05.032Z,97226.44
2023-12-20T12:48:34.995Z,97222.94
2023-12-20T12:51:02.585Z,97227.88
2023-12-20T12:53:30.136Z,97230.38
2023-12-20T12:55:57.908Z,97232.75
2023-12-20T12:58:26.471Z,97240.16
2023-12-20T13:00:54.973Z,97236.97
2023-12-20T13:03:22.594Z,97239.06
2023-12-20T13:05:51.594Z,97234.50
2023-12-20T13:08:19.186Z,97234.50
2023-12-20T13:10:46.728Z,97232.94
2023-12-20T13:13:14.286Z,97250.88
2023-12-20T13:15:42.188Z,97238.78
2023-12-20T13:18:09.956Z,97243.03
2023-12-20T13:20:37.548Z,97248.59
2023-12-20T13:23:06.631Z,97239.09
2023-12-20T13:25:34.566Z,97255.91
2023-12-20T13:28:02.196Z,97238.47
2023-12-20T13:30:29.827Z,97245.06
2023-12-20T13:32:57.537Z,97247.81
2023-12-20T13:35:25.207Z,97241.47
2023-12-20T13:37:52.933Z,97247.06
2023-12-20T13:40:22.189Z,97239.38
2023-12-20T13:42:49.879Z,97248.59
2023-12-20T13:45:17.742Z,97245.66
2023-12-20T13:47:45.623Z,97240.44
2023-12-20T13:50:13.714Z,97247.63
2023-12-20T13:52:41.474Z,97252.47
2023-12-20T13:55:09.939Z,97247.78
2023-12-20T13:57:51.774Z,97256.63
2023-12-20T14:00:22.937Z,97249.28
2023-12-20T14:02:50.926Z,97258.78
2023-12-20T14:05:19.706Z,97259.31
2023-12-20T14:07:47.935Z,97263.53
2023-12-20T14:10:16.108Z,97269.78
2023-12-20T14:12:45.989Z,97267.84
2023-12-20T14:15:14.274Z,97274.91
2023-12-20T14:17:43.208Z,97274.38
2023-12-20T14:20:13.562Z,97276.97
2023-12-20T14:22:44.905Z,97279.03
2023-12-20T14:25:13.211Z,97282.53
2023-12-20T14:27:41.516Z,97293.78
2023-12-20T14:30:11.665Z,97290.75
2023-12-20T14:32:40.009Z,97299.28
2023-12-20T14:35:09.457Z,97299.09
2023-12-20T14:37:39.939Z,97297.88
2023-12-20T14:40:11.920Z,97299.69
2023-12-20T14:42:39.952Z,97290.34
2023-12-20T14:45:08.290Z,97296.44
2023-12-20T14:47:37.837Z,97287.22
2023-12-20T14:50:06.111Z,97293.38
2023-12-20T14:52:35.015Z,97289.63
2023-12-20T14:55:03.682Z,97302.97
2023-12-20T14:57:31.429Z,97299.50
2023-12-20T14:59:59.206Z,97302.72
2023-12-20T15:02:26.846Z,97297.53
2023-12-20T15:04:55.711Z,97309.16
2023-12-20T15:07:23.340Z,97309.19
2023-12-20T15:09:50.971Z,97297.31
2023-12-20T15:12:18.521Z,97296.00
2023-12-20T15:14:46.129Z,97298.91
2023-12-20T15:17:13.730Z,97295.44
2023-12-20T15:19:41.620Z,97291.78
2023-12-20T15:22:10.737Z,97285.47
2023-12-20T15:24:39.562Z,97288.06
2023-12-20T15:27:07.701Z,97284.59
2023-12-20T15:29:35.902Z,97281.84
2023-12-20T15:32:04.755Z,97286.34
2023-12-20T15:34:32.760Z,97298.50
2023-12-20T15:37:00.599Z,97291.00
2023-12-20T15:39:29.552Z,97294.72
2023-12-20T15:41:57.128Z,97292.28
2023-12-20T15:44:24.650Z,97289.50
2023-12-20T15:46:53.616Z,97292.41
2023-12-20T15:49:21.297Z,97288.75
2023-12-20T15:51:48.910Z,97289.47
2023-12-20T15:54:16.639Z,97301.94
2023-12-20T15:56:47.398Z,97295.13
2023-12-20T15:59:14.988Z,97298.09
2023-12-20T16:01:42.623Z,97299.22
2023-12-20T16:04:21.467Z,97292.41
2023-12-20T16:06:49.307Z,97286.00
2023-12-20T16:09:16.975Z,97295.78
2023-12-20T16:11:45.901Z,97300.97
2023-12-20T16:14:18.454Z,97303.63
2023-12-20T16:16:46.389Z,97303.31
2023-12-20T16:19:14.130Z,97305.34
2023-12-20T16:21:41.848Z,97300.69
2023-12-20T16:24:09.884Z,97294.59
2023-12-20T16:26:37.585Z,97293.56
2023-12-20T16:29:06.504Z,97296.66
2023-12-20T16:31:34.284Z,97295.28
2023-12-20T16:34:05.802Z,97298.53
2023-12-20T16:36:50.810Z,97301.91
2023-12-20T16:39:20.352Z,97317.03
2023-12-20T16:41:49.462Z,97315.94
2023-12-20T16:44:18.479Z,97321.38
2023-12-20T16:46:46.146Z,97326.50
2023-12-20T16:49:13.988Z,97320.84
2023-12-20T16:51:41.605Z,97325.50
2023-12-20T16:54:09.186Z,97323.69
2023-12-20T16:56:36.828Z,97317.44
2023-12-20T16:59:05.284Z,97314.97
2023-12-20T17:01:34.284Z,97307.00
2023-12-20T17:04:02.468Z,97306.03
2023-12-20T17:06:30.375Z,97296.28
2023-12-20T17:08:57.915Z,97304.38
2023-12-20T17:11:25.436Z,97310.81
2023-12-20T17:13:53.531Z,97308.16
2023-12-20T17:16:21.470Z,97312.47
2023-12-20T17:18:50.830Z,97317.94
2023-12-20T17:21:18.938Z,97317.47
2023-12-20T17:23:47.084Z,97300.44
2023-12-20T17:26:15.066Z,97307.72
2023-12-20T17:28:42.850Z,97317.88
2023-12-20T17:31:10.716Z,97326.72
2023-12-20T17:33:38.437Z,97330.09
2023-12-20T17:36:08.421Z,97331.94
2023-12-20T17:38:38.739Z,97326.88
2023-12-20T17:41:06.490Z,97330.31
2023-12-20T17:43:34.063Z,97327.38
2023-12-20T17:46:01.744Z,97328.38
2023-12-20T17:48:29.439Z,97327.44
2023-12-20T17:50:57.030Z,97337.50
2023-12-20T17:53:25.908Z,97338.22
2023-12-20T17:55:53.522Z,97336.41
2023-12-20T17:58:21.900Z,97345.00
2023-12-20T18:00:50.023Z,97356.03
2023-12-20T18:03:17.643Z,97367.69
2023-12-20T18:05:45.250Z,97353.69
2023-12-20T18:08:12.874Z,97342.66
2023-12-20T18:10:42.442Z,97340.19
2023-12-20T18:13:10.370Z,97343.28
2023-12-20T18:15:38.049Z,97341.50
2023-12-20T18:18:05.997Z,97344.28
2023-12-20T18:20:33.731Z,97344.72
2023-12-20T18:23:01.418Z,97343.06
2023-12-20T18:25:30.462Z,97345.06
2023-12-20T18:27:59.472Z,97347.03
2023-12-20T18:30:27.062Z,97351.22
2023-12-20T18:32:54.700Z,97354.06
2023-12-20T18:35:22.335Z,97357.94
2023-12-20T18:37:50.127Z,97356.50
2023-12-20T18:40:17.748Z,97355.44
2023-12-20T18:42:45.420Z,97352.34
2023-12-20T18:45:14.420Z,97355.47
2023-12-20T18:47:42.378Z,97352.91
2023-12-20T18:50:10.478Z,97351.63
2023-12-20T18:52:38.126Z,97357.84
2023-12-20T18:55:06.692Z,97356.69
2023-12-20T18:57:34.226Z,97353.31
2023-12-20T19:00:04.422Z,97359.38
2023-12-20T19:02:35.684Z,97370.25
2023-12-20T19:05:03.871Z,97360.06
2023-12-20T19:07:31.631Z,97361.91
2023-12-20T19:09:59.270Z,97366.56
2023-12-20T19:12:26.868Z,97366.56
2023-12-20T19:14:54.480Z,97362.84
2023-12-20T19:17:22.327Z,97352.16
2023-12-20T19:19:51.328Z,97360.81
2023-12-20T19:22:19.052Z,97353.88
2023-12-20T19:24:46.746Z,97361.53
2023-12-20T19:27:14.376Z,97362.00
2023-12-20T19:29:41.953Z,97347.81
2023-12-20T19:32:09.512Z,97341.84
2023-12-20T19:34:37.182Z,97336.59
2023-12-20T19:37:06.274Z,97336.31
2023-12-20T19:39:33.832Z,97332.09
2023-12-20T19:42:01.384Z,97335.19
2023-12-20T19:44:28.947Z,97345.19
2023-12-20T19:46:56.459Z,97331.56
2023-12-20T19:49:24.032Z,97335.38
2023-12-20T19:51:51.672Z,97331.88
2023-12-20T19:54:20.583Z,97336.50
2023-12-20T19:56:48.174Z,97324.19
2023-12-20T19:59:15.802Z,97321.47
2023-12-20T20:01:44.470Z,97310.34
2023-12-20T20:04:13.227Z,97300.75
2023-12-20T20:06:42.061Z,97303.00
2023-12-20T20:09:09.592Z,97294.34
2023-12-20T20:11:38.468Z,97306.97
2023-12-20T20:14:05.036Z,97297.13
2023-12-20T20:16:32.703Z,97298.25
2023-12-20T20:19:00.379Z,97289.84
2023-12-20T20:21:28.162Z,97273.47
2023-12-20T20:23:55.807Z,97276.63
2023-12-20T20:26:23.432Z,97283.91
2023-12-20T20:28:52.325Z,97268.09
2023-12-20T20:31:19.896Z,97263.75
2023-12-20T20:33:47.494Z,97263.25
2023-12-20T20:36:15.120Z,97257.81
2023-12-20T20:38:42.668Z,97247.53
2023-12-20T20:41:10.224Z,97239.34
2023-12-20T20:43:37.968Z,97247.41
2023-12-20T20:46:07.219Z,97261.56
2023-12-20T20:48:43.900Z,97264.97
2023-12-20T20:51:15.662Z,97267.84
2023-12-20T20:53:43.228Z,97264.63
2023-12-20T20:56:10.927Z,97260.38
2023-12-20T20:58:38.645Z,97263.50
2023-12-20T21:01:08.324Z,97259.81
2023-12-20T21:03:36.419Z,97251.41
2023-12-20T21:06:04.315Z,97246.53
2023-12-20T21:08:32.490Z,97247.13
2023-12-20T21:11:00.635Z,97257.31
2023-12-20T21:13:29.800Z,97254.19
2023-12-20T21:15:57.680Z,97254.97
2023-12-20T21:18:28.551Z,97243.72
2023-12-20T21:20:56.439Z,97239.19
2023-12-20T21:23:24.103Z,97233.94
2023-12-20T21:25:52.113Z,97239.50
2023-12-20T21:28:21.220Z,97230.75
2023-12-20T21:30:50.363Z,97228.97
2023-12-20T21:33:18.211Z,97232.94
2023-12-20T21:35:47.208Z,97237.66
2023-12-20T21:38:14.781Z,97245.03
2023-12-20T21:40:42.396Z,97245.53
2023-12-20T21:43:10.081Z,97246.34
2023-12-20T21:45:38.452Z,97257.09
2023-12-20T21:48:06.739Z,97269.44
2023-12-20T21:50:34.485Z,97254.97
2023-12-20T21:53:03.484Z,97240.25
2023-12-20T21:55:32.571Z,97231.66
2023-12-20T21:58:00.309Z,97222.94
2023-12-20T22:00:27.969Z,97228.22
2023-12-20T22:02:55.564Z,97228.25
2023-12-20T22:05:23.390Z,97227.72
2023-12-20T22:07:52.475Z,97232.16
2023-12-20T22:10:21.459Z,97226.03
2023-12-20T22:12:49.097Z,97236.09
2023-12-20T22:15:16.656Z,97220.84
2023-12-20T22:17:44.433Z,97235.84
2023-12-20T22:20:13.029Z,97236.09
2023-12-20T22:22:41.338Z,97231.06
2023-12-20T22:25:09.379Z,97220.25
2023-12-20T22:27:38.377Z,97211.53
2023-12-20T22:30:07.191Z,97215.56
2023-12-20T22:32:34.844Z,97197.63
2023-12-20T22:35:02.486Z,97195.00
2023-12-20T22:37:30.125Z,97188.25
2023-12-20T22:39:57.790Z,97183.50
2023-12-20T22:42:25.467Z,97191.41
2023-12-20T22:44:55.932Z,97189.56
2023-12-20T22:47:24.639Z,97190.84
2023-12-20T22:49:53.797Z,97202.22
2023-12-20T22:52:21.968Z,97200.13
2023-12-20T22:54:49.969Z,97198.28
2023-12-20T22:57:17.559Z,97192.47
2023-12-20T22:59:45.328Z,97181.44
2023-12-20T23:02:14.805Z,97188.50
2023-12-20T23:04:43.368Z,97174.06
2023-12-20T23:07:11.576Z,97164.59
2023-12-20T23:09:40.128Z,97177.22
2023-12-20T23:12:08.317Z,97170.88
2023-12-20T23:14:35.842Z,97169.03
2023-12-20T23:17:04.045Z,97171.97
2023-12-20T23:19:34.473Z,97159.78
2023-12-20T23:22:02.368Z,97154.88
2023-12-20T23:24:29.965Z,97151.47
2023-12-20T23:26:57.501Z,97154.34
2023-12-20T23:29:25.070Z,97143.97
2023-12-20T23:31:52.739Z,97138.81
2023-12-20T23:34:20.424Z,97153.06
2023-12-20T23:36:49.352Z,97155.97
2023-12-20T23:39:17.396Z,97149.91
2023-12-20T23:41:45.130Z,97155.94
2023-12-20T23:44:12.749Z,97160.34
2023-12-20T23:46:39.493Z,97152.19
2023-12-20T23:49:07.288Z,97137.94
2023-12-20T23:51:34.911Z,97126.69
2023-12-20T23:54:03.967Z,97138.56
2023-12-20T23:56:38.166Z,97134.09
2023-12-20T23:59:06.818Z,97137.25
